createdAt,value
2022-10-24T10:14:01.646Z,13.76
2022-10-24T10:15:26.844Z,13.88
2022-10-24T10:16:36.513Z,13.91
2022-10-24T10:47:56.381Z,14.23
2022-10-24T10:49:24.166Z,14.22
2022-10-24T11:29:02.269Z,14.41
2022-10-24T11:30:03.648Z,14.46
2022-10-24T11:31:18.570Z,14.45
2022-10-24T11:47:25.830Z,14.46
2022-10-24T11:49:09.932Z,14.54
2022-10-24T12:35:49.528Z,15.06
2022-10-24T12:37:12.076Z,15.10
2022-10-24T12:38:28.648Z,15.10
2022-10-24T12:39:32.502Z,15.13
2022-10-24T12:40:51.611Z,15.26
2022-10-24T12:41:55.398Z,15.30
2022-10-24T12:42:56.965Z,15.31
2022-10-24T12:44:37.621Z,15.37
2022-10-24T12:45:39.396Z,15.38
2022-10-24T12:46:40.697Z,15.50
2022-10-24T12:47:43.699Z,15.53
2022-10-24T12:49:08.070Z,15.52
2022-10-24T12:50:21.539Z,15.66
2022-10-24T12:51:37.202Z,15.57
2022-10-24T12:52:38.657Z,15.70
2022-10-24T12:54:03.716Z,15.73
2022-10-24T12:55:39.431Z,15.77
2022-10-24T12:56:49.978Z,15.64
2022-10-24T12:57:51.392Z,15.59
2022-10-24T12:59:18.112Z,15.65
2022-10-24T13:11:02.081Z,15.96
2022-10-24T13:12:42.337Z,16.16
2022-10-24T13:14:02.999Z,16.12
2022-10-24T13:15:20.973Z,16.07
2022-10-24T13:16:34.783Z,15.99
2022-10-24T13:17:41.904Z,15.88
2022-10-24T13:18:57.669Z,15.85
2022-10-24T13:20:17.093Z,16.17
2022-10-24T13:21:24.238Z,16.05
2022-10-24T13:22:32.176Z,15.98
2022-10-24T13:23:33.837Z,16.14
2022-10-24T13:24:40.585Z,16.17
2022-10-24T13:31:06.290Z,16.19
2022-10-24T13:32:07.784Z,16.07
2022-10-24T13:33:31.973Z,15.95
2022-10-24T13:34:58.182Z,15.91
2022-10-24T13:36:08.825Z,15.95
2022-10-24T13:37:10.105Z,15.95
2022-10-24T13:38:14.313Z,15.88
2022-10-24T13:39:20.897Z,15.86
2022-10-24T13:40:33.192Z,15.95
2022-10-24T13:41:38.746Z,15.89
2022-10-24T13:42:53.774Z,15.88
2022-10-24T13:44:00.726Z,15.99
2022-10-24T13:45:07.133Z,15.95
2022-10-24T13:46:13.228Z,16.17
2022-10-24T13:47:41.839Z,16.28
2022-10-24T13:48:48.765Z,16.05
2022-10-24T13:49:57.510Z,16.35
2022-10-24T13:51:23.716Z,16.60
2022-10-24T13:52:36.376Z,16.70
2022-10-24T13:53:50.463Z,16.59
2022-10-24T13:55:12.933Z,16.44
2022-10-24T13:56:15.002Z,16.45
2022-10-24T13:57:28.618Z,16.65
2022-10-24T13:58:40.985Z,16.72
2022-10-24T13:59:48.267Z,16.67
2022-10-24T14:07:36.441Z,17.08
2022-10-24T14:08:50.860Z,17.28
2022-10-24T14:10:07.080Z,17.29
2022-10-24T14:11:14.103Z,17.70
2022-10-24T14:12:24.900Z,18.22
2022-10-24T14:19:03.535Z,18.59
2022-10-24T14:20:14.376Z,18.72
2022-10-24T14:21:22.648Z,19.13
2022-10-24T14:22:34.728Z,19.34
2022-10-24T14:23:40.325Z,19.02
2022-10-24T14:24:44.012Z,19.23
2022-10-24T14:25:46.442Z,19.05
2022-10-24T14:26:51.491Z,18.93
2022-10-24T14:28:02.358Z,18.66
2022-10-24T14:29:03.925Z,18.79
2022-10-24T14:30:06.085Z,18.70
2022-10-24T14:31:19.208Z,18.87
2022-10-24T14:32:20.841Z,19.12
2022-10-24T14:33:23.776Z,18.97
2022-10-24T14:34:25.738Z,19.32
2022-10-24T14:35:27.210Z,19.30
2022-10-24T14:36:31.534Z,19.19
2022-10-24T14:37:36.001Z,19.07
2022-10-24T14:38:37.680Z,19.05
2022-10-24T14:39:39.738Z,18.96
2022-10-24T14:40:43.266Z,19.09
2022-10-24T14:41:44.742Z,18.89
2022-10-24T14:42:47.188Z,18.90
2022-10-24T14:43:48.750Z,18.92
2022-10-24T14:44:54.844Z,18.70
2022-10-24T14:46:12.773Z,18.44
2022-10-24T14:47:29.196Z,18.18
2022-10-24T14:48:30.684Z,18.21
2022-10-24T14:49:40.789Z,18.08
2022-10-24T14:50:47.116Z,17.75
2022-10-24T14:52:54.673Z,18.17
2022-10-24T14:53:57.391Z,18.19
2022-10-24T14:55:03.119Z,18.03
2022-10-24T14:56:16.350Z,18.21
2022-10-24T14:57:20.610Z,18.13
2022-10-24T14:58:25.297Z,17.98
2022-10-24T14:59:35.667Z,18.31
2022-10-24T15:00:39.346Z,17.92
2022-10-24T15:01:40.840Z,17.98
2022-10-24T15:02:43.502Z,17.97
2022-10-24T15:03:59.042Z,18.03
2022-10-24T15:05:19.113Z,17.82
2022-10-24T15:06:26.691Z,17.85
2022-10-24T15:13:02.433Z,18.10
2022-10-24T15:14:07.317Z,17.70
2022-10-24T15:15:33.980Z,17.91
2022-10-24T15:16:39.141Z,17.72
2022-10-24T15:17:40.642Z,17.85
2022-10-24T15:18:43.217Z,17.60
2022-10-24T15:25:06.053Z,16.48
2022-10-24T15:26:46.403Z,16.25
2022-10-24T15:27:48.065Z,15.95
2022-10-24T15:29:05.530Z,15.89
2022-10-24T15:30:19.998Z,15.79
2022-10-24T15:31:22.406Z,15.73
2022-10-24T15:32:24.283Z,15.47
2022-10-24T15:33:25.707Z,15.47
2022-10-24T15:34:27.738Z,15.36
2022-10-24T15:35:33.703Z,15.43
2022-10-24T15:36:39.249Z,15.23
2022-10-24T15:37:54.766Z,15.28
2022-10-24T15:38:59.070Z,15.22
2022-10-24T15:40:07.206Z,15.22
2022-10-24T15:41:09.196Z,15.14
2022-10-24T15:42:11.312Z,15.14
2022-10-24T15:43:13.996Z,15.12
2022-10-24T15:44:26.689Z,15.18
2022-10-24T15:45:28.517Z,15.10
2022-10-24T15:46:30.345Z,15.09
2022-10-24T15:47:31.816Z,15.10
2022-10-24T15:48:33.200Z,14.82
2022-10-24T16:01:05.948Z,14.72
2022-10-24T16:02:18.716Z,14.76
2022-10-24T16:03:26.480Z,14.76
2022-10-24T16:04:28.005Z,14.72
2022-10-24T16:05:33.893Z,14.70
2022-10-24T16:06:35.267Z,14.59
2022-10-24T16:07:36.659Z,14.54
2022-10-24T16:08:41.886Z,14.59
2022-10-24T16:09:43.266Z,14.49
2022-10-24T16:10:45.277Z,14.21
2022-10-24T16:11:47.277Z,14.23
2022-10-24T16:12:50.193Z,14.18
2022-10-24T16:13:51.856Z,14.23
2022-10-24T16:14:53.211Z,14.12
2022-10-24T16:15:54.608Z,14.03
2022-10-24T16:16:56.506Z,14.00
2022-10-24T16:17:59.841Z,13.96
2022-10-24T16:19:01.213Z,13.95
2022-10-24T16:31:24.522Z,13.50
2022-10-24T16:32:26.043Z,13.54
2022-10-24T16:33:27.412Z,13.54
2022-10-24T16:34:29.008Z,13.47
2022-10-24T16:35:33.428Z,13.46
2022-10-24T16:36:35.008Z,13.33
